createdAt,value
2017-11-30T00:00:01.773Z,26.43
2017-11-30T00:02:36.655Z,28.57
2017-11-30T00:05:11.482Z,27.30
2017-11-30T00:07:46.391Z,28.87
2017-11-30T00:10:21.101Z,24.93
2017-11-30T00:12:55.894Z,29.70
2017-11-30T00:15:30.513Z,27.00
2017-11-30T00:18:05.574Z,27.17
2017-11-30T00:20:40.318Z,30.10
2017-11-30T00:23:15.057Z,28.97
2017-11-30T00:25:49.326Z,24.87
2017-11-30T00:28:24.309Z,29.60
2017-11-30T00:30:59.031Z,27.03
2017-11-30T00:33:33.757Z,27.90
2017-11-30T00:36:08.641Z,26.97
2017-11-30T00:38:43.469Z,27.80
2017-11-30T00:41:18.173Z,27.90
2017-11-30T00:43:52.551Z,28.33
2017-11-30T00:46:27.301Z,25.33
2017-11-30T00:49:02.338Z,27.83
2017-11-30T00:51:37.585Z,26.70
2017-11-30T00:54:11.979Z,27.50
2017-11-30T00:56:47.069Z,25.20
2017-11-30T00:59:21.927Z,25.33
2017-11-30T01:01:56.748Z,26.97
2017-11-30T01:04:31.633Z,26.00
2017-11-30T01:07:06.306Z,24.80
2017-11-30T01:09:41.210Z,23.63
2017-11-30T01:12:15.817Z,25.27
2017-11-30T01:14:50.541Z,26.27
2017-11-30T01:17:24.930Z,25.10
2017-11-30T01:19:59.922Z,25.50
2017-11-30T01:22:34.727Z,26.37
2017-11-30T01:25:09.525Z,26.80
2017-11-30T01:27:44.554Z,23.70
2017-11-30T01:30:19.514Z,25.70
2017-11-30T01:32:54.282Z,24.30
2017-11-30T01:35:29.014Z,25.63
2017-11-30T01:38:03.942Z,24.20
2017-11-30T01:40:39.098Z,24.03
2017-11-30T01:43:14.002Z,25.47
2017-11-30T01:45:49.151Z,25.33
2017-11-30T01:48:24.055Z,25.00
2017-11-30T01:50:58.791Z,25.37
2017-11-30T01:53:33.602Z,26.83
2017-11-30T01:56:08.359Z,27.67
2017-11-30T01:58:43.443Z,26.90
2017-11-30T02:01:18.298Z,26.00
2017-11-30T02:03:53.049Z,25.70
2017-11-30T02:06:27.880Z,27.57
2017-11-30T02:09:02.930Z,27.67
2017-11-30T02:11:37.886Z,27.60
2017-11-30T02:14:12.585Z,23.90
2017-11-30T02:16:47.449Z,20.37
2017-11-30T02:19:21.630Z,26.37
2017-11-30T02:21:56.377Z,22.30
2017-11-30T02:24:31.191Z,24.30
2017-11-30T02:27:06.350Z,22.50
2017-11-30T02:29:40.847Z,26.47
2017-11-30T02:32:15.680Z,25.83
2017-11-30T02:34:50.561Z,22.60
2017-11-30T02:37:25.087Z,22.97
2017-11-30T02:40:00.081Z,24.10
2017-11-30T02:42:34.863Z,24.27
2017-11-30T02:45:09.437Z,21.57
2017-11-30T02:47:44.075Z,24.63
2017-11-30T02:50:19.229Z,25.27
2017-11-30T02:52:53.726Z,25.50
2017-11-30T02:55:28.836Z,24.20
2017-11-30T02:58:03.465Z,23.27
2017-11-30T03:00:38.130Z,27.70
2017-11-30T03:03:12.876Z,22.10
2017-11-30T03:05:47.388Z,27.53
2017-11-30T03:08:22.165Z,23.27
2017-11-30T03:10:56.720Z,25.13
2017-11-30T03:13:31.729Z,24.53
2017-11-30T03:16:06.270Z,25.87
2017-11-30T03:18:40.982Z,24.57
2017-11-30T03:21:16.185Z,11.50
2017-11-30T03:23:50.578Z,22.57
2017-11-30T03:26:25.551Z,25.37
2017-11-30T03:29:00.569Z,25.73
2017-11-30T03:31:35.470Z,22.90
2017-11-30T03:34:10.326Z,24.03
2017-11-30T03:36:45.055Z,25.67
2017-11-30T03:39:19.553Z,26.07
2017-11-30T03:41:54.486Z,27.90
2017-11-30T03:44:29.366Z,25.87
2017-11-30T03:47:04.117Z,27.73
2017-11-30T03:49:38.642Z,29.23
2017-11-30T03:52:13.314Z,27.80
2017-11-30T03:54:48.134Z,28.17
2017-11-30T03:57:22.802Z,28.33
2017-11-30T03:59:57.777Z,26.63
2017-11-30T04:02:32.544Z,28.60
2017-11-30T04:05:07.350Z,28.00
2017-11-30T04:07:42.285Z,27.07
2017-11-30T04:10:17.037Z,28.20
2017-11-30T04:12:51.735Z,26.03
2017-11-30T04:15:26.591Z,27.53
2017-11-30T04:18:01.320Z,28.27
2017-11-30T04:20:36.357Z,27.93
2017-11-30T04:23:11.114Z,29.17
2017-11-30T04:25:45.938Z,27.77
2017-11-30T04:28:20.912Z,26.50
2017-11-30T04:30:55.772Z,28.17
2017-11-30T04:33:30.603Z,30.27
2017-11-30T04:36:05.325Z,27.03
2017-11-30T04:38:40.051Z,25.30
2017-11-30T04:41:14.817Z,26.00
2017-11-30T04:43:49.757Z,28.53
2017-11-30T04:46:24.254Z,27.63
2017-11-30T04:48:59.002Z,26.27
2017-11-30T04:51:33.633Z,28.67
2017-11-30T04:54:08.401Z,27.20
2017-11-30T04:56:42.986Z,24.77
2017-11-30T04:59:17.689Z,29.63
2017-11-30T05:01:52.655Z,29.93
2017-11-30T05:04:27.417Z,29.63
2017-11-30T05:07:01.871Z,26.43
2017-11-30T05:09:36.569Z,29.67
2017-11-30T05:12:11.566Z,28.13
2017-11-30T05:14:46.514Z,28.70
2017-11-30T05:17:21.205Z,30.40
2017-11-30T05:19:56.182Z,33.77
2017-11-30T05:22:30.995Z,29.83
2017-11-30T05:25:05.800Z,36.40
2017-11-30T05:27:40.242Z,33.40
2017-11-30T05:30:15.211Z,30.50
2017-11-30T05:32:49.914Z,33.20
2017-11-30T05:35:24.806Z,29.70
2017-11-30T05:37:59.534Z,30.03
2017-11-30T05:40:34.301Z,26.87
2017-11-30T05:43:09.114Z,30.70
2017-11-30T05:45:43.686Z,31.00
2017-11-30T05:48:18.545Z,28.20
2017-11-30T05:50:53.312Z,29.20
2017-11-30T05:53:27.958Z,31.87
2017-11-30T05:56:02.761Z,30.20
2017-11-30T05:58:37.394Z,30.30
2017-11-30T06:01:12.214Z,29.10
2017-11-30T06:03:47.166Z,32.50
2017-11-30T06:06:21.999Z,30.27
2017-11-30T06:08:57.002Z,28.57
2017-11-30T06:11:31.838Z,30.73
2017-11-30T06:14:06.677Z,31.10
2017-11-30T06:16:41.630Z,30.00
2017-11-30T06:19:16.204Z,33.07
2017-11-30T06:21:51.371Z,32.50
2017-11-30T06:24:26.389Z,32.60
2017-11-30T06:27:01.498Z,32.23
2017-11-30T06:29:36.359Z,28.63
2017-11-30T06:32:11.195Z,32.53
2017-11-30T06:34:46.080Z,29.90
2017-11-30T06:37:21.174Z,28.20
2017-11-30T06:39:55.841Z,31.63
2017-11-30T06:42:30.638Z,30.53
2017-11-30T06:45:05.422Z,32.63
2017-11-30T06:47:40.201Z,33.50
2017-11-30T06:50:15.052Z,31.30
2017-11-30T06:52:49.790Z,29.17
2017-11-30T06:55:24.717Z,28.17
2017-11-30T06:57:59.454Z,32.40
2017-11-30T07:00:33.877Z,26.77
2017-11-30T07:03:08.606Z,32.20
2017-11-30T07:05:43.442Z,31.70
2017-11-30T07:08:18.128Z,29.17
2017-11-30T07:10:52.978Z,31.80
2017-11-30T07:13:27.979Z,30.40
2017-11-30T07:16:02.758Z,32.77
2017-11-30T07:18:37.587Z,31.80
2017-11-30T07:21:12.386Z,31.20
2017-11-30T07:23:47.157Z,31.63
2017-11-30T07:26:22.016Z,29.20
2017-11-30T07:28:56.447Z,26.87
2017-11-30T07:31:31.442Z,28.70
2017-11-30T07:34:06.196Z,28.00
2017-11-30T07:36:40.977Z,27.20
2017-11-30T07:39:15.712Z,23.47
2017-11-30T07:41:50.410Z,25.13
2017-11-30T07:44:25.037Z,29.07
2017-11-30T07:46:59.938Z,20.73
2017-11-30T07:49:34.843Z,27.07
2017-11-30T07:52:09.688Z,28.93
2017-11-30T07:54:44.278Z,25.43
2017-11-30T07:57:19.085Z,26.97
2017-11-30T07:59:53.914Z,23.57
2017-11-30T08:02:28.657Z,25.33
2017-11-30T08:05:03.369Z,24.30
2017-11-30T08:07:38.191Z,26.27
2017-11-30T08:10:13.080Z,23.80
2017-11-30T08:12:47.698Z,25.30
2017-11-30T08:15:22.427Z,24.83
2017-11-30T08:17:57.015Z,25.40
2017-11-30T08:20:31.766Z,25.10
2017-11-30T08:23:06.632Z,28.20
2017-11-30T08:25:41.141Z,23.27
2017-11-30T08:28:16.267Z,22.43
2017-11-30T08:30:51.170Z,25.83
2017-11-30T08:33:26.043Z,20.10
2017-11-30T08:36:00.754Z,24.07
2017-11-30T08:38:35.603Z,25.23
2017-11-30T08:41:10.440Z,25.60
2017-11-30T08:43:45.315Z,29.07
2017-11-30T08:46:20.165Z,26.00
2017-11-30T08:48:54.917Z,26.97
2017-11-30T08:51:29.827Z,24.13
2017-11-30T08:54:04.167Z,27.37
2017-11-30T08:56:38.852Z,25.27
2017-11-30T08:59:13.798Z,25.37
2017-11-30T09:01:48.418Z,25.90
2017-11-30T09:04:23.383Z,25.00
2017-11-30T09:06:58.162Z,25.63
2017-11-30T09:09:32.965Z,27.00
2017-11-30T09:12:07.407Z,26.20
2017-11-30T09:14:42.294Z,24.17
2017-11-30T09:17:17.164Z,26.87
2017-11-30T09:19:51.653Z,26.60
2017-11-30T09:22:26.713Z,26.03
2017-11-30T09:25:01.395Z,25.83
2017-11-30T09:27:36.245Z,24.60
2017-11-30T09:30:10.942Z,24.70
2017-11-30T09:32:45.898Z,25.47
2017-11-30T09:35:20.581Z,25.63
2017-11-30T09:37:55.455Z,24.43
2017-11-30T09:40:30.326Z,25.63
2017-11-30T09:43:05.210Z,26.87
2017-11-30T09:45:40.242Z,23.87
2017-11-30T09:48:14.990Z,24.73
2017-11-30T09:50:50.019Z,24.23
2017-11-30T09:53:25.171Z,23.90
2017-11-30T09:56:00.071Z,22.87
2017-11-30T09:58:35.010Z,24.77
2017-11-30T10:01:09.856Z,25.07
2017-11-30T10:03:44.793Z,24.03
2017-11-30T10:06:19.711Z,23.30
2017-11-30T10:08:54.574Z,23.50
2017-11-30T10:11:29.226Z,25.63
2017-11-30T10:14:04.224Z,27.70
2017-11-30T10:16:39.146Z,25.50
2017-11-30T10:19:14.301Z,25.70
2017-11-30T10:21:49.217Z,25.40
2017-11-30T10:24:23.870Z,26.17
2017-11-30T10:26:58.893Z,23.90
2017-11-30T10:29:33.697Z,24.83
2017-11-30T10:32:08.353Z,24.90
2017-11-30T10:34:42.927Z,25.60
2017-11-30T10:37:17.635Z,23.37
2017-11-30T10:39:52.256Z,30.50
2017-11-30T10:42:26.870Z,29.67
2017-11-30T10:45:01.773Z,26.40
2017-11-30T10:47:36.487Z,24.63
2017-11-30T10:50:11.334Z,24.63
2017-11-30T10:52:46.183Z,28.50
2017-11-30T10:55:21.093Z,25.67
2017-11-30T10:57:55.839Z,23.87
2017-11-30T11:00:30.774Z,25.07
2017-11-30T11:03:05.618Z,25.27
2017-11-30T11:05:40.563Z,20.03
2017-11-30T11:08:15.270Z,21.20
2017-11-30T11:10:50.075Z,19.33
2017-11-30T11:13:25.025Z,23.50
2017-11-30T11:15:59.860Z,21.17
2017-11-30T11:18:34.693Z,23.77
2017-11-30T11:21:09.418Z,22.87
2017-11-30T11:23:44.488Z,20.80
2017-11-30T11:26:19.191Z,17.37
2017-11-30T11:28:53.730Z,21.90
2017-11-30T11:31:28.626Z,18.07
2017-11-30T11:34:03.569Z,18.67
2017-11-30T11:36:38.515Z,19.40
2017-11-30T11:39:13.350Z,18.33
2017-11-30T11:41:48.353Z,18.93
2017-11-30T11:44:23.265Z,19.87
2017-11-30T11:46:58.024Z,21.67
2017-11-30T11:49:32.929Z,20.20
2017-11-30T11:52:07.858Z,17.53
2017-11-30T11:54:42.670Z,17.53
2017-11-30T11:57:17.478Z,19.20
2017-11-30T11:59:52.339Z,19.13
2017-11-30T12:02:26.779Z,12.80
2017-11-30T12:05:01.573Z,18.23
2017-11-30T12:07:37.264Z,17.80
2017-11-30T12:10:12.261Z,16.70
2017-11-30T12:12:47.426Z,15.20
2017-11-30T12:15:22.478Z,15.97
2017-11-30T12:17:57.451Z,16.90
2017-11-30T12:20:32.386Z,15.40
2017-11-30T12:23:07.178Z,15.80
2017-11-30T12:25:42.047Z,15.17
2017-11-30T12:28:16.794Z,15.03
2017-11-30T12:30:51.670Z,15.37
2017-11-30T12:33:26.213Z,15.10
2017-11-30T12:36:00.861Z,16.93
2017-11-30T12:38:35.679Z,12.57
2017-11-30T12:41:10.301Z,13.50
2017-11-30T12:43:45.012Z,9.83
2017-11-30T12:46:19.740Z,14.40
2017-11-30T12:48:54.589Z,16.53
2017-11-30T12:51:29.322Z,16.97
2017-11-30T12:54:04.093Z,16.90
2017-11-30T12:56:38.805Z,14.80
2017-11-30T12:59:13.268Z,15.10
2017-11-30T13:01:48.002Z,15.83
2017-11-30T13:04:22.989Z,13.97
2017-11-30T13:06:57.688Z,14.10
2017-11-30T13:09:32.517Z,12.47
2017-11-30T13:12:07.476Z,17.00
2017-11-30T13:14:42.186Z,12.80
2017-11-30T13:17:16.718Z,16.43
2017-11-30T13:19:51.649Z,13.93
2017-11-30T13:22:26.412Z,14.37
2017-11-30T13:25:01.097Z,13.10
2017-11-30T13:27:36.136Z,14.70
2017-11-30T13:30:10.876Z,13.83
2017-11-30T13:32:45.807Z,14.27
2017-11-30T13:35:20.563Z,15.30
2017-11-30T13:37:55.552Z,13.67
2017-11-30T13:40:30.233Z,13.80
2017-11-30T13:43:05.029Z,12.80
2017-11-30T13:45:39.836Z,14.50
2017-11-30T13:48:14.941Z,13.63
2017-11-30T13:50:49.746Z,13.83
2017-11-30T13:53:24.612Z,13.20
2017-11-30T13:55:59.544Z,13.77
2017-11-30T13:58:34.569Z,14.80
2017-11-30T14:01:09.876Z,15.33
2017-11-30T14:03:44.703Z,12.47
2017-11-30T14:06:19.317Z,13.60
2017-11-30T14:08:54.212Z,13.00
2017-11-30T14:11:29.085Z,12.10
2017-11-30T14:14:04.174Z,12.63
2017-11-30T14:16:38.953Z,12.73
2017-11-30T14:19:13.674Z,10.00
2017-11-30T14:21:48.460Z,13.33
2017-11-30T14:24:23.408Z,11.10
2017-11-30T14:26:58.268Z,12.07
2017-11-30T14:29:33.209Z,11.20
2017-11-30T14:32:07.910Z,9.70
2017-11-30T14:34:42.868Z,12.40
2017-11-30T14:37:17.917Z,11.80
2017-11-30T14:39:52.902Z,13.00
2017-11-30T14:42:27.849Z,11.00
2017-11-30T14:45:03.090Z,11.90
2017-11-30T14:47:37.830Z,10.27
2017-11-30T14:50:12.812Z,10.80
2017-11-30T14:52:47.532Z,10.93
2017-11-30T14:55:22.572Z,10.20
2017-11-30T14:57:57.378Z,10.63
2017-11-30T15:00:32.644Z,9.93
2017-11-30T15:03:07.364Z,8.50
2017-11-30T15:05:42.424Z,8.93
2017-11-30T15:08:17.400Z,9.50
2017-11-30T15:10:52.416Z,10.40
2017-11-30T15:13:27.289Z,10.53
2017-11-30T15:16:02.228Z,10.90
2017-11-30T15:18:38.862Z,10.80
2017-11-30T15:21:14.244Z,9.80
2017-11-30T15:23:49.161Z,10.20
2017-11-30T15:26:24.200Z,10.77
2017-11-30T15:28:59.022Z,11.50
2017-11-30T15:31:33.619Z,11.07
2017-11-30T15:34:08.529Z,12.10
2017-11-30T15:36:46.424Z,11.03
2017-11-30T15:39:21.320Z,11.03
2017-11-30T15:41:56.344Z,10.60
2017-11-30T15:44:31.384Z,10.57
2017-11-30T15:47:06.226Z,10.60
2017-11-30T15:49:41.109Z,11.87
2017-11-30T15:52:15.960Z,12.57
2017-11-30T15:54:50.757Z,66.83
2017-11-30T15:57:25.612Z,18.03
2017-11-30T16:00:00.409Z,23.30
2017-11-30T16:02:35.236Z,14.43
2017-11-30T16:05:10.170Z,13.90
2017-11-30T16:07:44.984Z,13.47
2017-11-30T16:10:19.952Z,15.37
2017-11-30T16:12:54.846Z,13.90
2017-11-30T16:15:29.671Z,16.20
2017-11-30T16:18:04.504Z,15.50
2017-11-30T16:20:39.347Z,15.50
2017-11-30T16:23:14.256Z,14.50
2017-11-30T16:25:49.338Z,16.00
2017-11-30T16:28:24.040Z,14.47
2017-11-30T16:30:59.199Z,13.47
2017-11-30T16:33:33.484Z,16.03
2017-11-30T16:36:08.389Z,14.80
2017-11-30T16:38:43.376Z,16.10
2017-11-30T16:41:18.116Z,17.60
2017-11-30T16:43:52.928Z,24.83
2017-11-30T16:46:27.860Z,20.70
2017-11-30T16:49:02.788Z,21.50
2017-11-30T16:51:37.528Z,20.87
2017-11-30T16:54:12.425Z,19.17
2017-11-30T16:56:47.248Z,21.00
2017-11-30T16:59:22.029Z,19.03
2017-11-30T17:01:56.665Z,29.47
2017-11-30T17:04:31.689Z,30.73
2017-11-30T17:07:06.430Z,22.47
2017-11-30T17:09:41.249Z,19.03
2017-11-30T17:12:16.078Z,17.43
2017-11-30T17:14:50.876Z,15.37
2017-11-30T17:17:25.608Z,15.07
2017-11-30T17:20:00.249Z,17.50
2017-11-30T17:22:35.116Z,16.50
2017-11-30T17:25:09.789Z,21.93
2017-11-30T17:27:44.614Z,15.20
2017-11-30T17:30:19.310Z,18.07
2017-11-30T17:32:54.116Z,15.67
2017-11-30T17:35:32.046Z,15.80
2017-11-30T17:38:06.787Z,15.57
2017-11-30T17:40:41.433Z,15.53
2017-11-30T17:43:16.604Z,17.93
2017-11-30T17:45:51.313Z,15.73
2017-11-30T17:48:26.366Z,18.97
2017-11-30T17:51:01.072Z,16.33
2017-11-30T17:53:36.053Z,15.47
2017-11-30T17:56:10.902Z,24.70
2017-11-30T17:58:45.575Z,13.20
2017-11-30T18:01:20.536Z,15.77
2017-11-30T18:03:55.309Z,15.90
2017-11-30T18:06:30.161Z,15.17
2017-11-30T18:09:04.579Z,18.27
2017-11-30T18:11:39.641Z,14.50
2017-11-30T18:14:14.572Z,17.30
2017-11-30T18:16:49.816Z,15.90
2017-11-30T18:19:24.657Z,18.97
2017-11-30T18:21:59.756Z,16.77
2017-11-30T18:24:34.808Z,15.00
2017-11-30T18:27:09.912Z,15.53
2017-11-30T18:29:45.064Z,18.10
2017-11-30T18:32:19.802Z,16.27
2017-11-30T18:34:54.456Z,15.43
2017-11-30T18:37:29.192Z,17.10
2017-11-30T18:40:03.931Z,20.40
2017-11-30T18:42:38.931Z,16.17
2017-11-30T18:45:14.096Z,19.23
2017-11-30T18:47:48.894Z,16.77
2017-11-30T18:50:24.085Z,16.90
2017-11-30T18:52:58.804Z,20.00
2017-11-30T18:55:33.643Z,20.63
2017-11-30T18:58:08.681Z,28.27
2017-11-30T19:00:43.632Z,27.83
2017-11-30T19:03:18.428Z,18.00
2017-11-30T19:05:53.163Z,19.50
2017-11-30T19:08:27.795Z,20.17
2017-11-30T19:11:02.849Z,38.27
2017-11-30T19:13:37.619Z,20.47
2017-11-30T19:16:12.515Z,27.47
2017-11-30T19:18:47.409Z,18.63
2017-11-30T19:21:22.072Z,16.40
2017-11-30T19:23:56.864Z,17.13
2017-11-30T19:26:31.901Z,17.60
2017-11-30T19:29:06.961Z,17.53
2017-11-30T19:31:41.788Z,19.00
2017-11-30T19:34:16.637Z,17.20
2017-11-30T19:36:52.648Z,22.43
2017-11-30T19:39:27.988Z,18.70
2017-11-30T19:42:02.780Z,21.37
2017-11-30T19:44:37.946Z,45.93
2017-11-30T19:47:12.849Z,22.40
2017-11-30T19:49:47.652Z,39.90
2017-11-30T19:52:22.580Z,24.00
2017-11-30T19:54:57.517Z,20.80
2017-11-30T19:57:32.524Z,23.47
2017-11-30T20:00:07.265Z,23.00
2017-11-30T20:02:41.992Z,21.47
2017-11-30T20:05:16.861Z,21.77
2017-11-30T20:07:51.742Z,21.60
2017-11-30T20:10:26.576Z,20.30
2017-11-30T20:13:01.528Z,21.07
2017-11-30T20:15:36.359Z,19.77
2017-11-30T20:18:10.925Z,19.20
2017-11-30T20:20:45.820Z,20.70
2017-11-30T20:23:20.764Z,22.53
2017-11-30T20:25:55.696Z,31.97
2017-11-30T20:28:30.560Z,20.33
2017-11-30T20:31:05.334Z,18.70
2017-11-30T20:33:40.079Z,18.73
2017-11-30T20:36:14.913Z,17.23
2017-11-30T20:38:49.516Z,19.10
2017-11-30T20:41:24.544Z,19.27
2017-11-30T20:43:59.372Z,21.77
2017-11-30T20:46:34.423Z,21.37
2017-11-30T20:49:09.234Z,20.20
2017-11-30T20:51:44.176Z,20.50
2017-11-30T20:54:19.116Z,25.30
2017-11-30T20:56:53.936Z,20.20
2017-11-30T20:59:28.767Z,19.63
2017-11-30T21:02:03.866Z,18.30
2017-11-30T21:04:39.405Z,17.80
2017-11-30T21:07:14.401Z,16.23
2017-11-30T21:09:49.177Z,18.53
2017-11-30T21:12:23.984Z,18.70
2017-11-30T21:14:58.889Z,18.40
2017-11-30T21:17:33.729Z,20.67
2017-11-30T21:20:08.432Z,19.43
2017-11-30T21:22:43.388Z,18.60
2017-11-30T21:25:18.145Z,19.20
2017-11-30T21:27:53.061Z,17.47
2017-11-30T21:30:27.441Z,17.23
2017-11-30T21:33:02.324Z,19.67
2017-11-30T21:35:37.133Z,16.07
2017-11-30T21:38:11.980Z,17.43
2017-11-30T21:40:46.812Z,17.30
2017-11-30T21:43:21.824Z,15.37
2017-11-30T21:45:56.499Z,17.43
2017-11-30T21:48:31.324Z,16.60
2017-11-30T21:51:06.179Z,17.30
2017-11-30T21:53:41.076Z,17.43
2017-11-30T21:56:15.888Z,16.73
2017-11-30T21:58:50.616Z,16.43
2017-11-30T22:01:25.538Z,16.43
2017-11-30T22:04:00.397Z,16.17
2017-11-30T22:06:35.221Z,17.77
2017-11-30T22:09:09.933Z,17.60
2017-11-30T22:11:44.772Z,15.73
2017-11-30T22:14:19.516Z,18.43
2017-11-30T22:16:54.436Z,15.27
2017-11-30T22:19:29.237Z,15.07
2017-11-30T22:22:04.293Z,15.87
2017-11-30T22:24:39.313Z,14.87
2017-11-30T22:27:14.339Z,13.90
2017-11-30T22:29:49.144Z,16.53
2017-11-30T22:32:23.774Z,14.77
2017-11-30T22:34:58.714Z,15.63
2017-11-30T22:37:33.102Z,14.00
2017-11-30T22:40:08.432Z,16.07
2017-11-30T22:42:43.297Z,15.80
2017-11-30T22:45:18.014Z,13.93
2017-11-30T22:47:52.912Z,13.30
2017-11-30T22:50:27.925Z,14.63
2017-11-30T22:53:02.673Z,13.97
2017-11-30T22:55:37.829Z,14.90
2017-11-30T22:58:12.881Z,14.53
2017-11-30T23:00:47.908Z,13.57
2017-11-30T23:03:22.792Z,13.40
2017-11-30T23:05:57.215Z,15.47
2017-11-30T23:08:32.097Z,17.17
2017-11-30T23:11:07.002Z,13.07
2017-11-30T23:13:42.280Z,14.70
2017-11-30T23:16:17.190Z,14.80
2017-11-30T23:18:51.889Z,15.57
2017-11-30T23:21:27.227Z,14.97
2017-11-30T23:24:01.748Z,12.77
2017-11-30T23:26:36.810Z,13.00
2017-11-30T23:29:11.528Z,15.10
2017-11-30T23:31:46.589Z,14.63
2017-11-30T23:34:21.223Z,14.33
2017-11-30T23:36:55.924Z,15.70
2017-11-30T23:39:30.964Z,13.97
2017-11-30T23:42:05.585Z,14.27
2017-11-30T23:44:40.548Z,13.67
2017-11-30T23:47:15.204Z,14.40
2017-11-30T23:49:50.008Z,14.50
2017-11-30T23:52:24.713Z,15.77
2017-11-30T23:54:59.660Z,14.40
2017-11-30T23:57:34.375Z,14.27
